sensor_id;sensor_type;location;lat;lon;timestamp;P1;durP1;ratioP1;P2;durP2;ratioP2
1691;SDS011;843;52.054;8.552;2023-01-10T00:00:22;10.83;;;6.20;;
1691;SDS011;843;52.054;8.552;2023-01-10T00:02:49;14.47;;;5.90;;
1691;SDS011;843;52.054;8.552;2023-01-10T00:05:17;9.93;;;5.30;;
1691;SDS011;843;52.054;8.552;2023-01-10T00:07:44;7.23;;;4.60;;
1691;SDS011;843;52.054;8.552;2023-01-10T00:10:11;5.23;;;4.20;;
1691;SDS011;843;52.054;8.552;2023-01-10T00:12:38;9.07;;;4.53;;
1691;SDS011;843;52.054;8.552;2023-01-10T00:15:23;5.00;;;3.40;;
1691;SDS011;843;52.054;8.552;2023-01-10T00:17:50;6.90;;;3.70;;
1691;SDS011;843;52.054;8.552;2023-01-10T00:20:17;8.60;;;4.27;;
1691;SDS011;843;52.054;8.552;2023-01-10T00:22:44;6.63;;;3.90;;
1691;SDS011;843;52.054;8.552;2023-01-10T00:25:10;7.13;;;3.67;;
1691;SDS011;843;52.054;8.552;2023-01-10T00:27:37;11.93;;;3.90;;
1691;SDS011;843;52.054;8.552;2023-01-10T00:30:05;5.97;;;3.13;;
1691;SDS011;843;52.054;8.552;2023-01-10T00:32:40;6.60;;;2.93;;
1691;SDS011;843;52.054;8.552;2023-01-10T00:35:07;5.00;;;3.73;;
1691;SDS011;843;52.054;8.552;2023-01-10T00:37:36;5.70;;;3.10;;
1691;SDS011;843;52.054;8.552;2023-01-10T00:40:04;5.80;;;3.20;;
1691;SDS011;843;52.054;8.552;2023-01-10T00:42:33;10.43;;;3.03;;
1691;SDS011;843;52.054;8.552;2023-01-10T00:45:17;5.40;;;3.70;;
1691;SDS011;843;52.054;8.552;2023-01-10T00:47:47;3.70;;;2.30;;
1691;SDS011;843;52.054;8.552;2023-01-10T00:50:14;6.70;;;3.00;;
1691;SDS011;843;52.054;8.552;2023-01-10T00:52:41;7.23;;;3.30;;
1691;SDS011;843;52.054;8.552;2023-01-10T00:55:08;3.27;;;2.57;;
1691;SDS011;843;52.054;8.552;2023-01-10T00:57:35;4.27;;;3.23;;
1691;SDS011;843;52.054;8.552;2023-01-10T01:00:02;6.57;;;3.40;;
1691;SDS011;843;52.054;8.552;2023-01-10T01:02:31;8.30;;;3.23;;
1691;SDS011;843;52.054;8.552;2023-01-10T01:04:59;4.30;;;3.43;;
1691;SDS011;843;52.054;8.552;2023-01-10T01:07:26;3.33;;;2.63;;
1691;SDS011;843;52.054;8.552;2023-01-10T01:09:53;5.70;;;2.57;;
1691;SDS011;843;52.054;8.552;2023-01-10T01:12:33;5.80;;;3.07;;
1691;SDS011;843;52.054;8.552;2023-01-10T01:15:00;5.50;;;3.17;;
1691;SDS011;843;52.054;8.552;2023-01-10T01:17:26;8.43;;;3.03;;
1691;SDS011;843;52.054;8.552;2023-01-10T01:19:53;3.83;;;2.40;;
1691;SDS011;843;52.054;8.552;2023-01-10T01:22:21;9.03;;;4.77;;
1691;SDS011;843;52.054;8.552;2023-01-10T01:24:48;7.30;;;3.20;;
1691;SDS011;843;52.054;8.552;2023-01-10T01:27:14;5.20;;;3.67;;
1691;SDS011;843;52.054;8.552;2023-01-10T01:29:41;7.57;;;5.13;;
1691;SDS011;843;52.054;8.552;2023-01-10T01:32:07;8.10;;;4.90;;
1691;SDS011;843;52.054;8.552;2023-01-10T01:34:34;9.27;;;5.93;;
1691;SDS011;843;52.054;8.552;2023-01-10T01:37:01;9.00;;;6.00;;
1691;SDS011;843;52.054;8.552;2023-01-10T01:39:29;7.73;;;5.97;;
1691;SDS011;843;52.054;8.552;2023-01-10T01:41:57;9.00;;;6.63;;
1691;SDS011;843;52.054;8.552;2023-01-10T01:44:28;8.80;;;5.40;;
1691;SDS011;843;52.054;8.552;2023-01-10T01:46:59;12.20;;;6.13;;
1691;SDS011;843;52.054;8.552;2023-01-10T01:49:27;11.10;;;5.70;;
1691;SDS011;843;52.054;8.552;2023-01-10T01:51:57;9.83;;;5.50;;
1691;SDS011;843;52.054;8.552;2023-01-10T01:54:26;12.40;;;6.03;;
1691;SDS011;843;52.054;8.552;2023-01-10T01:57:03;10.93;;;6.43;;
1691;SDS011;843;52.054;8.552;2023-01-10T01:59:32;9.17;;;6.43;;
1691;SDS011;843;52.054;8.552;2023-01-10T02:02:02;13.77;;;7.30;;
1691;SDS011;843;52.054;8.552;2023-01-10T02:04:32;10.53;;;5.87;;
1691;SDS011;843;52.054;8.552;2023-01-10T02:07:03;11.50;;;6.60;;
1691;SDS011;843;52.054;8.552;2023-01-10T02:09:32;13.73;;;7.13;;
1691;SDS011;843;52.054;8.552;2023-01-10T02:12:02;12.00;;;7.97;;
1691;SDS011;843;52.054;8.552;2023-01-10T02:14:29;13.10;;;8.20;;
1691;SDS011;843;52.054;8.552;2023-01-10T02:16:57;20.23;;;9.27;;
1691;SDS011;843;52.054;8.552;2023-01-10T02:19:25;15.20;;;9.87;;
1691;SDS011;843;52.054;8.552;2023-01-10T02:22:10;17.83;;;9.80;;
1691;SDS011;843;52.054;8.552;2023-01-10T02:31:14;24.83;;;12.13;;
1691;SDS011;843;52.054;8.552;2023-01-10T02:33:48;17.27;;;8.30;;
1691;SDS011;843;52.054;8.552;2023-01-10T02:36:24;20.20;;;9.53;;
1691;SDS011;843;52.054;8.552;2023-01-10T02:38:57;20.70;;;10.30;;
1691;SDS011;843;52.054;8.552;2023-01-10T02:41:27;18.97;;;10.73;;
1691;SDS011;843;52.054;8.552;2023-01-10T02:43:59;25.83;;;12.57;;
1691;SDS011;843;52.054;8.552;2023-01-10T02:46:29;24.70;;;10.50;;
1691;SDS011;843;52.054;8.552;2023-01-10T02:48:57;24.20;;;10.10;;
1691;SDS011;843;52.054;8.552;2023-01-10T02:51:25;20.60;;;9.77;;
1691;SDS011;843;52.054;8.552;2023-01-10T02:53:53;20.93;;;10.03;;
1691;SDS011;843;52.054;8.552;2023-01-10T02:56:35;20.50;;;9.37;;
1691;SDS011;843;52.054;8.552;2023-01-10T03:02:43;19.60;;;10.23;;
1691;SDS011;843;52.054;8.552;2023-01-10T03:05:22;23.77;;;10.20;;
1691;SDS011;843;52.054;8.552;2023-01-10T03:07:58;20.37;;;9.90;;
1691;SDS011;843;52.054;8.552;2023-01-10T03:10:29;22.43;;;8.27;;
1691;SDS011;843;52.054;8.552;2023-01-10T03:12:59;19.10;;;9.97;;
1691;SDS011;843;52.054;8.552;2023-01-10T03:15:30;17.13;;;8.80;;
1691;SDS011;843;52.054;8.552;2023-01-10T03:17:59;22.80;;;9.17;;
1691;SDS011;843;52.054;8.552;2023-01-10T03:20:29;15.67;;;7.43;;
1691;SDS011;843;52.054;8.552;2023-01-10T03:22:57;16.47;;;9.17;;
1691;SDS011;843;52.054;8.552;2023-01-10T03:25:26;19.33;;;8.40;;
1691;SDS011;843;52.054;8.552;2023-01-10T03:27:57;21.00;;;8.57;;
1691;SDS011;843;52.054;8.552;2023-01-10T03:30:28;19.53;;;7.40;;
1691;SDS011;843;52.054;8.552;2023-01-10T03:32:57;15.20;;;8.03;;
1691;SDS011;843;52.054;8.552;2023-01-10T03:35:26;18.10;;;7.10;;
1691;SDS011;843;52.054;8.552;2023-01-10T03:38:00;16.67;;;6.77;;
1691;SDS011;843;52.054;8.552;2023-01-10T03:40:31;21.10;;;7.33;;
1691;SDS011;843;52.054;8.552;2023-01-10T03:43:02;21.53;;;8.03;;
1691;SDS011;843;52.054;8.552;2023-01-10T03:45:58;20.23;;;7.70;;
1691;SDS011;843;52.054;8.552;2023-01-10T03:48:28;12.70;;;6.97;;
1691;SDS011;843;52.054;8.552;2023-01-10T03:50:58;24.73;;;9.93;;
1691;SDS011;843;52.054;8.552;2023-01-10T03:53:27;11.73;;;6.53;;
1691;SDS011;843;52.054;8.552;2023-01-10T03:55:54;14.47;;;6.30;;
1691;SDS011;843;52.054;8.552;2023-01-10T03:58:21;12.20;;;6.20;;
1691;SDS011;843;52.054;8.552;2023-01-10T04:00:48;19.73;;;8.70;;
1691;SDS011;843;52.054;8.552;2023-01-10T04:03:14;12.90;;;6.27;;
1691;SDS011;843;52.054;8.552;2023-01-10T04:05:41;14.00;;;6.80;;
1691;SDS011;843;52.054;8.552;2023-01-10T04:08:09;15.53;;;6.80;;
1691;SDS011;843;52.054;8.552;2023-01-10T04:10:36;13.70;;;6.53;;
1691;SDS011;843;52.054;8.552;2023-01-10T04:13:03;13.43;;;5.80;;
1691;SDS011;843;52.054;8.552;2023-01-10T04:15:30;16.63;;;7.07;;
1691;SDS011;843;52.054;8.552;2023-01-10T04:17:57;16.23;;;5.63;;
1691;SDS011;843;52.054;8.552;2023-01-10T04:20:23;18.07;;;7.10;;
1691;SDS011;843;52.054;8.552;2023-01-10T04:22:51;19.13;;;6.93;;
1691;SDS011;843;52.054;8.552;2023-01-10T04:25:20;13.43;;;6.33;;
1691;SDS011;843;52.054;8.552;2023-01-10T04:27:47;20.03;;;7.50;;
1691;SDS011;843;52.054;8.552;2023-01-10T04:30:14;15.03;;;7.67;;
1691;SDS011;843;52.054;8.552;2023-01-10T04:32:41;19.10;;;7.70;;
1691;SDS011;843;52.054;8.552;2023-01-10T04:35:08;22.63;;;7.17;;
1691;SDS011;843;52.054;8.552;2023-01-10T04:37:34;15.93;;;6.77;;
1691;SDS011;843;52.054;8.552;2023-01-10T04:40:02;13.13;;;6.67;;
1691;SDS011;843;52.054;8.552;2023-01-10T04:42:30;13.33;;;6.47;;
1691;SDS011;843;52.054;8.552;2023-01-10T04:44:57;15.57;;;6.00;;
1691;SDS011;843;52.054;8.552;2023-01-10T04:47:23;21.30;;;6.47;;
1691;SDS011;843;52.054;8.552;2023-01-10T04:49:50;15.47;;;6.07;;
1691;SDS011;843;52.054;8.552;2023-01-10T04:52:17;11.77;;;6.03;;
1691;SDS011;843;52.054;8.552;2023-01-10T04:54:43;12.80;;;7.70;;
1691;SDS011;843;52.054;8.552;2023-01-10T04:57:10;16.00;;;6.23;;
1691;SDS011;843;52.054;8.552;2023-01-10T04:59:38;14.53;;;6.40;;
1691;SDS011;843;52.054;8.552;2023-01-10T05:02:04;13.87;;;6.73;;
1691;SDS011;843;52.054;8.552;2023-01-10T05:04:31;17.50;;;6.90;;
1691;SDS011;843;52.054;8.552;2023-01-10T05:06:58;15.73;;;6.80;;
1691;SDS011;843;52.054;8.552;2023-01-10T05:09:24;17.60;;;7.33;;
1691;SDS011;843;52.054;8.552;2023-01-10T05:11:51;19.80;;;8.23;;
1691;SDS011;843;52.054;8.552;2023-01-10T05:14:18;14.27;;;7.10;;
1691;SDS011;843;52.054;8.552;2023-01-10T05:16:46;23.77;;;7.80;;
1691;SDS011;843;52.054;8.552;2023-01-10T05:19:12;21.97;;;7.53;;
1691;SDS011;843;52.054;8.552;2023-01-10T05:21:39;20.03;;;8.03;;
1691;SDS011;843;52.054;8.552;2023-01-10T05:24:06;25.60;;;8.50;;
1691;SDS011;843;52.054;8.552;2023-01-10T05:26:33;19.17;;;8.90;;
1691;SDS011;843;52.054;8.552;2023-01-10T05:29:00;17.97;;;8.53;;
1691;SDS011;843;52.054;8.552;2023-01-10T05:31:27;20.57;;;9.03;;
1691;SDS011;843;52.054;8.552;2023-01-10T05:33:55;21.73;;;8.93;;
1691;SDS011;843;52.054;8.552;2023-01-10T05:36:21;19.40;;;8.40;;
1691;SDS011;843;52.054;8.552;2023-01-10T05:38:48;15.37;;;7.40;;
1691;SDS011;843;52.054;8.552;2023-01-10T05:41:14;20.37;;;8.00;;
1691;SDS011;843;52.054;8.552;2023-01-10T05:43:41;17.37;;;8.40;;
1691;SDS011;843;52.054;8.552;2023-01-10T05:46:08;16.40;;;6.90;;
1691;SDS011;843;52.054;8.552;2023-01-10T05:48:35;11.37;;;7.00;;
1691;SDS011;843;52.054;8.552;2023-01-10T05:51:03;15.30;;;8.03;;
1691;SDS011;843;52.054;8.552;2023-01-10T05:53:30;17.70;;;8.10;;
1691;SDS011;843;52.054;8.552;2023-01-10T05:55:57;14.73;;;7.70;;
1691;SDS011;843;52.054;8.552;2023-01-10T05:58:24;16.40;;;7.60;;
1691;SDS011;843;52.054;8.552;2023-01-10T06:00:51;17.40;;;9.10;;
1691;SDS011;843;52.054;8.552;2023-01-10T06:03:19;11.97;;;7.73;;
1691;SDS011;843;52.054;8.552;2023-01-10T06:05:46;21.33;;;9.80;;
1691;SDS011;843;52.054;8.552;2023-01-10T06:08:14;17.83;;;10.17;;
1691;SDS011;843;52.054;8.552;2023-01-10T06:10:40;18.40;;;9.30;;
1691;SDS011;843;52.054;8.552;2023-01-10T06:13:07;13.57;;;9.40;;
1691;SDS011;843;52.054;8.552;2023-01-10T06:15:36;17.13;;;9.37;;
1691;SDS011;843;52.054;8.552;2023-01-10T06:18:02;19.40;;;9.37;;
1691;SDS011;843;52.054;8.552;2023-01-10T06:20:29;20.43;;;8.90;;
1691;SDS011;843;52.054;8.552;2023-01-10T06:22:56;23.77;;;9.57;;
1691;SDS011;843;52.054;8.552;2023-01-10T06:25:27;16.17;;;9.47;;
1691;SDS011;843;52.054;8.552;2023-01-10T06:27:54;20.40;;;9.03;;
1691;SDS011;843;52.054;8.552;2023-01-10T06:30:20;16.43;;;9.70;;
1691;SDS011;843;52.054;8.552;2023-01-10T06:32:47;19.67;;;9.80;;
1691;SDS011;843;52.054;8.552;2023-01-10T06:35:14;29.40;;;11.77;;
1691;SDS011;843;52.054;8.552;2023-01-10T06:37:42;26.43;;;9.20;;
1691;SDS011;843;52.054;8.552;2023-01-10T06:40:09;19.30;;;10.87;;
1691;SDS011;843;52.054;8.552;2023-01-10T06:42:37;24.93;;;10.07;;
1691;SDS011;843;52.054;8.552;2023-01-10T06:45:05;19.07;;;8.80;;
1691;SDS011;843;52.054;8.552;2023-01-10T06:47:32;20.93;;;8.90;;
1691;SDS011;843;52.054;8.552;2023-01-10T06:49:59;24.93;;;10.10;;
1691;SDS011;843;52.054;8.552;2023-01-10T06:52:26;21.43;;;9.80;;
1691;SDS011;843;52.054;8.552;2023-01-10T06:54:52;16.27;;;10.73;;
1691;SDS011;843;52.054;8.552;2023-01-10T06:57:19;18.53;;;10.87;;
1691;SDS011;843;52.054;8.552;2023-01-10T06:59:47;17.73;;;10.33;;
1691;SDS011;843;52.054;8.552;2023-01-10T07:02:13;22.37;;;10.90;;
1691;SDS011;843;52.054;8.552;2023-01-10T07:04:40;17.83;;;9.97;;
1691;SDS011;843;52.054;8.552;2023-01-10T07:07:07;25.80;;;12.57;;
1691;SDS011;843;52.054;8.552;2023-01-10T07:09:33;24.00;;;11.60;;
1691;SDS011;843;52.054;8.552;2023-01-10T07:12:00;24.10;;;13.20;;
1691;SDS011;843;52.054;8.552;2023-01-10T07:14:27;28.63;;;13.90;;
1691;SDS011;843;52.054;8.552;2023-01-10T07:16:54;25.70;;;12.57;;
1691;SDS011;843;52.054;8.552;2023-01-10T07:19:21;23.03;;;14.37;;
1691;SDS011;843;52.054;8.552;2023-01-10T07:21:48;30.97;;;14.17;;
1691;SDS011;843;52.054;8.552;2023-01-10T07:24:14;26.37;;;12.73;;
1691;SDS011;843;52.054;8.552;2023-01-10T07:26:41;23.93;;;12.10;;
1691;SDS011;843;52.054;8.552;2023-01-10T07:29:08;27.70;;;13.97;;
1691;SDS011;843;52.054;8.552;2023-01-10T07:31:34;22.20;;;12.90;;
1691;SDS011;843;52.054;8.552;2023-01-10T07:34:02;25.77;;;14.60;;
1691;SDS011;843;52.054;8.552;2023-01-10T07:36:29;21.13;;;14.63;;
1691;SDS011;843;52.054;8.552;2023-01-10T07:38:56;19.57;;;13.83;;
1691;SDS011;843;52.054;8.552;2023-01-10T07:41:22;25.57;;;13.40;;
1691;SDS011;843;52.054;8.552;2023-01-10T07:43:49;28.37;;;14.33;;
1691;SDS011;843;52.054;8.552;2023-01-10T07:46:16;26.77;;;14.53;;
1691;SDS011;843;52.054;8.552;2023-01-10T07:48:42;23.27;;;14.00;;
1691;SDS011;843;52.054;8.552;2023-01-10T07:51:12;22.63;;;14.67;;
1691;SDS011;843;52.054;8.552;2023-01-10T07:53:38;35.50;;;14.00;;
1691;SDS011;843;52.054;8.552;2023-01-10T07:56:05;25.40;;;14.67;;
1691;SDS011;843;52.054;8.552;2023-01-10T07:58:32;25.20;;;14.80;;
1691;SDS011;843;52.054;8.552;2023-01-10T08:00:59;24.23;;;13.53;;
1691;SDS011;843;52.054;8.552;2023-01-10T08:03:27;25.20;;;12.47;;
1691;SDS011;843;52.054;8.552;2023-01-10T08:05:58;26.77;;;15.10;;
1691;SDS011;843;52.054;8.552;2023-01-10T08:08:26;28.03;;;13.30;;
1691;SDS011;843;52.054;8.552;2023-01-10T08:10:53;25.50;;;14.07;;
1691;SDS011;843;52.054;8.552;2023-01-10T08:13:20;28.80;;;13.50;;
1691;SDS011;843;52.054;8.552;2023-01-10T08:15:47;27.93;;;14.10;;
1691;SDS011;843;52.054;8.552;2023-01-10T08:18:16;34.60;;;13.33;;
1691;SDS011;843;52.054;8.552;2023-01-10T08:20:43;23.17;;;13.53;;
1691;SDS011;843;52.054;8.552;2023-01-10T08:23:11;19.37;;;12.60;;
1691;SDS011;843;52.054;8.552;2023-01-10T08:25:39;27.37;;;14.07;;
1691;SDS011;843;52.054;8.552;2023-01-10T08:28:06;29.07;;;14.50;;
1691;SDS011;843;52.054;8.552;2023-01-10T08:30:32;19.43;;;12.57;;
1691;SDS011;843;52.054;8.552;2023-01-10T08:33:00;32.23;;;11.43;;
1691;SDS011;843;52.054;8.552;2023-01-10T08:35:27;27.63;;;12.50;;
1691;SDS011;843;52.054;8.552;2023-01-10T08:37:56;22.53;;;12.90;;
1691;SDS011;843;52.054;8.552;2023-01-10T08:40:23;19.83;;;10.30;;
1691;SDS011;843;52.054;8.552;2023-01-10T08:42:56;19.93;;;12.43;;
1691;SDS011;843;52.054;8.552;2023-01-10T08:45:23;32.40;;;10.80;;
1691;SDS011;843;52.054;8.552;2023-01-10T08:47:49;25.93;;;12.00;;
1691;SDS011;843;52.054;8.552;2023-01-10T08:50:16;20.20;;;11.43;;
1691;SDS011;843;52.054;8.552;2023-01-10T08:52:43;19.50;;;11.63;;
1691;SDS011;843;52.054;8.552;2023-01-10T08:55:09;28.23;;;10.23;;
1691;SDS011;843;52.054;8.552;2023-01-10T08:57:36;20.90;;;11.77;;
1691;SDS011;843;52.054;8.552;2023-01-10T09:00:05;28.13;;;12.33;;
1691;SDS011;843;52.054;8.552;2023-01-10T09:02:32;22.07;;;10.70;;
1691;SDS011;843;52.054;8.552;2023-01-10T09:04:59;24.57;;;11.53;;
1691;SDS011;843;52.054;8.552;2023-01-10T09:07:25;24.90;;;11.57;;
1691;SDS011;843;52.054;8.552;2023-01-10T09:09:52;25.13;;;12.40;;
1691;SDS011;843;52.054;8.552;2023-01-10T09:12:19;23.87;;;12.30;;
1691;SDS011;843;52.054;8.552;2023-01-10T09:15:05;26.63;;;10.97;;
1691;SDS011;843;52.054;8.552;2023-01-10T09:17:32;26.80;;;11.77;;
1691;SDS011;843;52.054;8.552;2023-01-10T09:19:59;20.40;;;9.90;;
1691;SDS011;843;52.054;8.552;2023-01-10T09:22:30;23.27;;;9.97;;
1691;SDS011;843;52.054;8.552;2023-01-10T09:24:56;25.60;;;9.80;;
1691;SDS011;843;52.054;8.552;2023-01-10T09:27:23;20.80;;;9.57;;
1691;SDS011;843;52.054;8.552;2023-01-10T09:29:50;33.23;;;9.70;;
1691;SDS011;843;52.054;8.552;2023-01-10T09:32:18;25.10;;;10.33;;
1691;SDS011;843;52.054;8.552;2023-01-10T09:34:45;22.37;;;9.80;;
1691;SDS011;843;52.054;8.552;2023-01-10T09:37:11;19.70;;;10.00;;
1691;SDS011;843;52.054;8.552;2023-01-10T09:39:38;20.70;;;9.23;;
1691;SDS011;843;52.054;8.552;2023-01-10T09:42:08;26.13;;;9.83;;
1691;SDS011;843;52.054;8.552;2023-01-10T09:44:48;22.20;;;9.53;;
1691;SDS011;843;52.054;8.552;2023-01-10T09:47:22;22.23;;;10.50;;
1691;SDS011;843;52.054;8.552;2023-01-10T09:49:53;22.10;;;9.00;;
1691;SDS011;843;52.054;8.552;2023-01-10T09:52:26;20.13;;;9.80;;
1691;SDS011;843;52.054;8.552;2023-01-10T09:54:56;27.87;;;9.30;;
1691;SDS011;843;52.054;8.552;2023-01-10T09:57:24;20.60;;;9.20;;
1691;SDS011;843;52.054;8.552;2023-01-10T09:59:50;21.00;;;10.60;;
1691;SDS011;843;52.054;8.552;2023-01-10T10:02:22;30.33;;;11.23;;
1691;SDS011;843;52.054;8.552;2023-01-10T10:04:57;17.30;;;8.60;;
1691;SDS011;843;52.054;8.552;2023-01-10T10:07:27;26.43;;;10.70;;
1691;SDS011;843;52.054;8.552;2023-01-10T10:09:54;22.17;;;10.57;;
1691;SDS011;843;52.054;8.552;2023-01-10T10:12:24;24.77;;;9.73;;
1691;SDS011;843;52.054;8.552;2023-01-10T10:14:58;42.50;;;10.37;;
1691;SDS011;843;52.054;8.552;2023-01-10T10:17:34;26.03;;;9.70;;
1691;SDS011;843;52.054;8.552;2023-01-10T10:20:11;21.63;;;11.70;;
1691;SDS011;843;52.054;8.552;2023-01-10T10:22:46;19.40;;;10.03;;
1691;SDS011;843;52.054;8.552;2023-01-10T10:25:22;25.77;;;10.40;;
1691;SDS011;843;52.054;8.552;2023-01-10T10:28:01;25.47;;;9.30;;
1691;SDS011;843;52.054;8.552;2023-01-10T10:30:44;27.83;;;9.60;;
1691;SDS011;843;52.054;8.552;2023-01-10T10:33:27;24.00;;;8.70;;
1691;SDS011;843;52.054;8.552;2023-01-10T10:35:59;23.77;;;9.70;;
1691;SDS011;843;52.054;8.552;2023-01-10T10:38:28;21.10;;;8.60;;
1691;SDS011;843;52.054;8.552;2023-01-10T10:40:57;25.80;;;9.30;;
1691;SDS011;843;52.054;8.552;2023-01-10T10:43:25;27.33;;;9.17;;
1691;SDS011;843;52.054;8.552;2023-01-10T10:45:56;30.10;;;9.10;;
1691;SDS011;843;52.054;8.552;2023-01-10T10:48:27;21.90;;;9.00;;
1691;SDS011;843;52.054;8.552;2023-01-10T10:50:58;18.30;;;8.77;;
1691;SDS011;843;52.054;8.552;2023-01-10T10:53:29;26.73;;;9.27;;
1691;SDS011;843;52.054;8.552;2023-01-10T10:55:57;25.93;;;8.80;;
1691;SDS011;843;52.054;8.552;2023-01-10T10:58:24;25.00;;;10.10;;
1691;SDS011;843;52.054;8.552;2023-01-10T11:00:54;22.13;;;9.57;;
1691;SDS011;843;52.054;8.552;2023-01-10T11:03:27;24.43;;;8.30;;
1691;SDS011;843;52.054;8.552;2023-01-10T11:05:56;27.37;;;9.80;;
1691;SDS011;843;52.054;8.552;2023-01-10T11:08:25;19.87;;;8.57;;
1691;SDS011;843;52.054;8.552;2023-01-10T11:10:54;23.17;;;10.30;;
1691;SDS011;843;52.054;8.552;2023-01-10T11:13:25;22.47;;;9.53;;
1691;SDS011;843;52.054;8.552;2023-01-10T11:15:55;19.07;;;8.07;;
1691;SDS011;843;52.054;8.552;2023-01-10T11:18:23;31.13;;;10.03;;
1691;SDS011;843;52.054;8.552;2023-01-10T11:20:52;23.20;;;8.93;;
1691;SDS011;843;52.054;8.552;2023-01-10T11:23:27;29.00;;;10.83;;
1691;SDS011;843;52.054;8.552;2023-01-10T11:25:59;24.00;;;9.50;;
1691;SDS011;843;52.054;8.552;2023-01-10T11:28:30;19.13;;;9.70;;
1691;SDS011;843;52.054;8.552;2023-01-10T11:30:57;26.73;;;10.30;;
1691;SDS011;843;52.054;8.552;2023-01-10T11:33:25;29.60;;;9.50;;
1691;SDS011;843;52.054;8.552;2023-01-10T11:35:57;18.17;;;8.73;;
1691;SDS011;843;52.054;8.552;2023-01-10T11:38:25;17.00;;;8.90;;
1691;SDS011;843;52.054;8.552;2023-01-10T11:40:55;28.97;;;8.90;;
1691;SDS011;843;52.054;8.552;2023-01-10T11:43:24;24.57;;;8.33;;
1691;SDS011;843;52.054;8.552;2023-01-10T11:45:53;20.60;;;9.60;;
1691;SDS011;843;52.054;8.552;2023-01-10T11:48:21;27.40;;;8.90;;
1691;SDS011;843;52.054;8.552;2023-01-10T11:50:50;25.07;;;9.43;;
1691;SDS011;843;52.054;8.552;2023-01-10T11:53:32;18.23;;;8.60;;
1691;SDS011;843;52.054;8.552;2023-01-10T11:56:03;22.67;;;9.87;;
1691;SDS011;843;52.054;8.552;2023-01-10T11:58:31;35.40;;;8.80;;
1691;SDS011;843;52.054;8.552;2023-01-10T12:00:59;16.43;;;7.33;;
1691;SDS011;843;52.054;8.552;2023-01-10T12:03:27;23.60;;;8.03;;
1691;SDS011;843;52.054;8.552;2023-01-10T12:05:57;24.00;;;9.30;;
1691;SDS011;843;52.054;8.552;2023-01-10T12:08:26;23.00;;;6.63;;
1691;SDS011;843;52.054;8.552;2023-01-10T12:10:57;21.60;;;8.93;;
1691;SDS011;843;52.054;8.552;2023-01-10T12:13:26;22.70;;;7.80;;
1691;SDS011;843;52.054;8.552;2023-01-10T12:18:47;25.07;;;8.00;;
1691;SDS011;843;52.054;8.552;2023-01-10T12:21:15;24.93;;;7.47;;
1691;SDS011;843;52.054;8.552;2023-01-10T12:23:44;25.03;;;6.60;;
1691;SDS011;843;52.054;8.552;2023-01-10T12:26:13;15.23;;;6.70;;
1691;SDS011;843;52.054;8.552;2023-01-10T12:28:41;18.43;;;6.33;;
1691;SDS011;843;52.054;8.552;2023-01-10T12:31:11;14.83;;;5.50;;
1691;SDS011;843;52.054;8.552;2023-01-10T12:33:40;14.70;;;6.53;;
1691;SDS011;843;52.054;8.552;2023-01-10T12:36:12;20.43;;;6.90;;
1691;SDS011;843;52.054;8.552;2023-01-10T12:38:44;16.23;;;5.53;;
1691;SDS011;843;52.054;8.552;2023-01-10T12:41:32;12.50;;;5.53;;
1691;SDS011;843;52.054;8.552;2023-01-10T12:44:21;19.03;;;6.00;;
1691;SDS011;843;52.054;8.552;2023-01-10T12:46:50;22.57;;;5.70;;
1691;SDS011;843;52.054;8.552;2023-01-10T12:49:21;10.27;;;4.70;;
1691;SDS011;843;52.054;8.552;2023-01-10T12:51:49;21.37;;;6.83;;
1691;SDS011;843;52.054;8.552;2023-01-10T12:54:18;24.43;;;6.40;;
1691;SDS011;843;52.054;8.552;2023-01-10T12:56:48;16.50;;;5.87;;
1691;SDS011;843;52.054;8.552;2023-01-10T12:59:16;15.47;;;5.70;;
1691;SDS011;843;52.054;8.552;2023-01-10T13:01:46;23.73;;;6.67;;
1691;SDS011;843;52.054;8.552;2023-01-10T13:04:17;19.60;;;5.73;;
1691;SDS011;843;52.054;8.552;2023-01-10T13:06:46;19.73;;;6.57;;
1691;SDS011;843;52.054;8.552;2023-01-10T13:09:15;18.80;;;6.87;;
1691;SDS011;843;52.054;8.552;2023-01-10T13:11:44;18.40;;;8.13;;
1691;SDS011;843;52.054;8.552;2023-01-10T13:14:15;17.87;;;6.90;;
1691;SDS011;843;52.054;8.552;2023-01-10T13:16:44;27.70;;;7.27;;
1691;SDS011;843;52.054;8.552;2023-01-10T13:19:23;20.87;;;7.03;;
1691;SDS011;843;52.054;8.552;2023-01-10T13:24:53;21.53;;;7.10;;
1691;SDS011;843;52.054;8.552;2023-01-10T13:27:21;20.87;;;5.83;;
1691;SDS011;843;52.054;8.552;2023-01-10T13:29:50;18.33;;;6.90;;
1691;SDS011;843;52.054;8.552;2023-01-10T13:32:20;21.57;;;6.97;;
1691;SDS011;843;52.054;8.552;2023-01-10T13:34:48;20.50;;;7.77;;
1691;SDS011;843;52.054;8.552;2023-01-10T13:37:18;16.83;;;6.27;;
1691;SDS011;843;52.054;8.552;2023-01-10T13:39:50;15.20;;;5.37;;
1691;SDS011;843;52.054;8.552;2023-01-10T13:42:25;13.43;;;5.77;;
1691;SDS011;843;52.054;8.552;2023-01-10T13:45:18;15.03;;;6.00;;
1691;SDS011;843;52.054;8.552;2023-01-10T13:48:03;15.13;;;6.00;;
1691;SDS011;843;52.054;8.552;2023-01-10T13:53:42;15.17;;;6.23;;
1691;SDS011;843;52.054;8.552;2023-01-10T13:56:32;17.70;;;5.53;;
1691;SDS011;843;52.054;8.552;2023-01-10T13:59:00;16.17;;;5.30;;
1691;SDS011;843;52.054;8.552;2023-01-10T14:01:55;12.40;;;5.70;;
1691;SDS011;843;52.054;8.552;2023-01-10T14:04:44;18.13;;;5.10;;
1691;SDS011;843;52.054;8.552;2023-01-10T14:07:14;21.60;;;5.47;;
1691;SDS011;843;52.054;8.552;2023-01-10T14:09:46;20.90;;;5.10;;
1691;SDS011;843;52.054;8.552;2023-01-10T14:12:16;18.13;;;5.17;;
1691;SDS011;843;52.054;8.552;2023-01-10T14:14:49;17.47;;;5.13;;
1691;SDS011;843;52.054;8.552;2023-01-10T14:17:21;22.83;;;4.47;;
1691;SDS011;843;52.054;8.552;2023-01-10T14:19:56;12.20;;;4.10;;
1691;SDS011;843;52.054;8.552;2023-01-10T14:22:39;15.70;;;5.10;;
1691;SDS011;843;52.054;8.552;2023-01-10T14:25:14;16.13;;;5.50;;
1691;SDS011;843;52.054;8.552;2023-01-10T14:27:45;14.77;;;5.53;;
1691;SDS011;843;52.054;8.552;2023-01-10T14:30:17;18.67;;;4.93;;
1691;SDS011;843;52.054;8.552;2023-01-10T14:32:47;20.00;;;4.20;;
1691;SDS011;843;52.054;8.552;2023-01-10T14:35:17;15.30;;;5.80;;
1691;SDS011;843;52.054;8.552;2023-01-10T14:37:46;19.53;;;4.40;;
1691;SDS011;843;52.054;8.552;2023-01-10T14:40:23;20.23;;;4.87;;
1691;SDS011;843;52.054;8.552;2023-01-10T14:42:52;11.60;;;4.77;;
1691;SDS011;843;52.054;8.552;2023-01-10T14:45:25;20.00;;;4.17;;
1691;SDS011;843;52.054;8.552;2023-01-10T14:48:02;15.53;;;3.67;;
1691;SDS011;843;52.054;8.552;2023-01-10T14:50:43;18.97;;;4.20;;
1691;SDS011;843;52.054;8.552;2023-01-10T14:53:13;9.10;;;3.63;;
1691;SDS011;843;52.054;8.552;2023-01-10T14:55:50;19.47;;;4.70;;
1691;SDS011;843;52.054;8.552;2023-01-10T14:58:16;16.63;;;3.63;;
1691;SDS011;843;52.054;8.552;2023-01-10T15:00:43;11.83;;;3.87;;
1691;SDS011;843;52.054;8.552;2023-01-10T15:03:15;13.90;;;5.03;;
1691;SDS011;843;52.054;8.552;2023-01-10T15:05:44;9.47;;;2.87;;
1691;SDS011;843;52.054;8.552;2023-01-10T15:08:16;15.23;;;4.00;;
1691;SDS011;843;52.054;8.552;2023-01-10T15:10:46;19.03;;;4.47;;
1691;SDS011;843;52.054;8.552;2023-01-10T15:13:16;13.03;;;3.50;;
1691;SDS011;843;52.054;8.552;2023-01-10T15:15:45;13.77;;;3.80;;
1691;SDS011;843;52.054;8.552;2023-01-10T15:18:17;13.80;;;3.37;;
1691;SDS011;843;52.054;8.552;2023-01-10T15:20:51;12.03;;;3.70;;
1691;SDS011;843;52.054;8.552;2023-01-10T15:23:18;18.23;;;3.70;;
1691;SDS011;843;52.054;8.552;2023-01-10T15:25:45;13.43;;;3.13;;
1691;SDS011;843;52.054;8.552;2023-01-10T15:28:20;10.10;;;3.67;;
1691;SDS011;843;52.054;8.552;2023-01-10T15:30:47;13.47;;;3.60;;
1691;SDS011;843;52.054;8.552;2023-01-10T15:33:16;11.47;;;3.00;;
1691;SDS011;843;52.054;8.552;2023-01-10T15:35:45;10.33;;;3.20;;
1691;SDS011;843;52.054;8.552;2023-01-10T15:38:12;11.83;;;3.20;;
1691;SDS011;843;52.054;8.552;2023-01-10T15:40:40;12.47;;;3.13;;
1691;SDS011;843;52.054;8.552;2023-01-10T15:43:11;13.47;;;3.20;;
1691;SDS011;843;52.054;8.552;2023-01-10T15:45:46;14.03;;;3.20;;
1691;SDS011;843;52.054;8.552;2023-01-10T15:48:26;9.63;;;3.00;;